sensor_id;sensor_type;location;lat;lon;timestamp;temperature;humidity
6110;DHT22;3085;49.444;11.054;2022-12-07T00:01:06;3.70;99.90
6110;DHT22;3085;49.444;11.054;2022-12-07T00:03:34;3.60;99.90
6110;DHT22;3085;49.444;11.054;2022-12-07T00:06:02;3.60;99.90
6110;DHT22;3085;49.444;11.054;2022-12-07T00:08:30;3.60;99.90
6110;DHT22;3085;49.444;11.054;2022-12-07T00:11:01;3.60;99.90
6110;DHT22;3085;49.444;11.054;2022-12-07T00:13:29;3.60;99.90
6110;DHT22;3085;49.444;11.054;2022-12-07T00:16:00;3.60;99.90
6110;DHT22;3085;49.444;11.054;2022-12-07T00:18:28;3.60;99.90
6110;DHT22;3085;49.444;11.054;2022-12-07T00:20:59;3.60;99.90
6110;DHT22;3085;49.444;11.054;2022-12-07T00:23:27;3.50;99.90
6110;DHT22;3085;49.444;11.054;2022-12-07T00:26:04;3.50;99.90
6110;DHT22;3085;49.444;11.054;2022-12-07T00:28:31;3.50;99.90
6110;DHT22;3085;49.444;11.054;2022-12-07T00:31:05;3.50;99.90
6110;DHT22;3085;49.444;11.054;2022-12-07T00:33:33;3.50;99.90
6110;DHT22;3085;49.444;11.054;2022-12-07T00:36:00;3.50;99.90
6110;DHT22;3085;49.444;11.054;2022-12-07T00:38:28;3.50;99.90
6110;DHT22;3085;49.444;11.054;2022-12-07T00:40:56;3.50;99.90
6110;DHT22;3085;49.444;11.054;2022-12-07T00:43:24;3.40;99.90
6110;DHT22;3085;49.444;11.054;2022-12-07T00:45:51;3.60;99.90
6110;DHT22;3085;49.444;11.054;2022-12-07T00:48:19;3.60;99.90
6110;DHT22;3085;49.444;11.054;2022-12-07T00:50:47;3.50;99.90
6110;DHT22;3085;49.444;11.054;2022-12-07T00:53:14;3.50;99.90
6110;DHT22;3085;49.444;11.054;2022-12-07T00:55:42;3.50;99.90
6110;DHT22;3085;49.444;11.054;2022-12-07T00:58:09;3.60;99.90
6110;DHT22;3085;49.444;11.054;2022-12-07T01:00:38;3.60;99.90
6110;DHT22;3085;49.444;11.054;2022-12-07T01:03:06;3.60;99.90
6110;DHT22;3085;49.444;11.054;2022-12-07T01:05:35;3.50;99.90
6110;DHT22;3085;49.444;11.054;2022-12-07T01:08:02;3.50;99.90
6110;DHT22;3085;49.444;11.054;2022-12-07T01:10:30;3.50;99.90
6110;DHT22;3085;49.444;11.054;2022-12-07T01:12:57;3.50;99.90
6110;DHT22;3085;49.444;11.054;2022-12-07T01:15:25;3.50;99.90
6110;DHT22;3085;49.444;11.054;2022-12-07T01:17:51;3.60;99.90
6110;DHT22;3085;49.444;11.054;2022-12-07T01:20:20;3.60;99.90
6110;DHT22;3085;49.444;11.054;2022-12-07T01:22:48;3.60;99.90
6110;DHT22;3085;49.444;11.054;2022-12-07T01:25:15;3.60;99.90
6110;DHT22;3085;49.444;11.054;2022-12-07T01:27:42;3.70;99.90
6110;DHT22;3085;49.444;11.054;2022-12-07T01:30:10;3.90;99.90
6110;DHT22;3085;49.444;11.054;2022-12-07T01:32:38;3.60;99.90
6110;DHT22;3085;49.444;11.054;2022-12-07T01:35:05;3.60;99.90
6110;DHT22;3085;49.444;11.054;2022-12-07T01:37:35;3.50;99.90
6110;DHT22;3085;49.444;11.054;2022-12-07T01:40:05;3.50;99.90
6110;DHT22;3085;49.444;11.054;2022-12-07T01:42:32;3.60;99.90
6110;DHT22;3085;49.444;11.054;2022-12-07T01:48:08;3.50;99.90
6110;DHT22;3085;49.444;11.054;2022-12-07T01:50:37;3.50;99.90
6110;DHT22;3085;49.444;11.054;2022-12-07T01:53:07;3.40;99.90
6110;DHT22;3085;49.444;11.054;2022-12-07T01:55:40;3.50;99.90
6110;DHT22;3085;49.444;11.054;2022-12-07T01:58:08;3.50;99.90
6110;DHT22;3085;49.444;11.054;2022-12-07T02:00:35;3.50;99.90
6110;DHT22;3085;49.444;11.054;2022-12-07T02:03:06;3.50;99.90
6110;DHT22;3085;49.444;11.054;2022-12-07T02:05:34;3.60;99.90
6110;DHT22;3085;49.444;11.054;2022-12-07T02:08:02;3.90;99.90
6110;DHT22;3085;49.444;11.054;2022-12-07T02:10:31;3.50;99.90
6110;DHT22;3085;49.444;11.054;2022-12-07T02:13:02;3.50;99.90
6110;DHT22;3085;49.444;11.054;2022-12-07T02:15:38;3.40;99.90
6110;DHT22;3085;49.444;11.054;2022-12-07T02:18:11;3.40;99.90
6110;DHT22;3085;49.444;11.054;2022-12-07T02:20:45;3.40;99.90
6110;DHT22;3085;49.444;11.054;2022-12-07T02:23:37;3.40;99.90
6110;DHT22;3085;49.444;11.054;2022-12-07T02:29:22;3.50;99.90
6110;DHT22;3085;49.444;11.054;2022-12-07T02:31:55;3.50;99.90
6110;DHT22;3085;49.444;11.054;2022-12-07T02:34:31;3.30;99.90
6110;DHT22;3085;49.444;11.054;2022-12-07T02:37:03;3.50;99.90
6110;DHT22;3085;49.444;11.054;2022-12-07T02:39:41;3.60;99.90
6110;DHT22;3085;49.444;11.054;2022-12-07T02:42:13;3.60;99.90
6110;DHT22;3085;49.444;11.054;2022-12-07T02:44:43;3.50;99.90
6110;DHT22;3085;49.444;11.054;2022-12-07T02:47:14;3.50;99.90
6110;DHT22;3085;49.444;11.054;2022-12-07T02:49:42;3.40;99.90
6110;DHT22;3085;49.444;11.054;2022-12-07T02:52:09;3.40;99.90
6110;DHT22;3085;49.444;11.054;2022-12-07T02:54:36;3.40;99.90
6110;DHT22;3085;49.444;11.054;2022-12-07T02:57:21;3.40;99.90
6110;DHT22;3085;49.444;11.054;2022-12-07T03:00:00;3.30;99.90
6110;DHT22;3085;49.444;11.054;2022-12-07T03:02:38;3.30;99.90
6110;DHT22;3085;49.444;11.054;2022-12-07T03:05:15;3.30;99.90
6110;DHT22;3085;49.444;11.054;2022-12-07T03:07:54;3.30;99.90
6110;DHT22;3085;49.444;11.054;2022-12-07T03:10:27;3.20;99.90
6110;DHT22;3085;49.444;11.054;2022-12-07T03:13:04;3.20;99.90
6110;DHT22;3085;49.444;11.054;2022-12-07T03:15:39;3.20;99.90
6110;DHT22;3085;49.444;11.054;2022-12-07T03:18:09;3.10;99.90
6110;DHT22;3085;49.444;11.054;2022-12-07T03:20:39;3.10;99.90
6110;DHT22;3085;49.444;11.054;2022-12-07T03:23:09;3.20;99.90
6110;DHT22;3085;49.444;11.054;2022-12-07T03:25:39;3.20;99.90
6110;DHT22;3085;49.444;11.054;2022-12-07T03:28:09;3.20;99.90
6110;DHT22;3085;49.444;11.054;2022-12-07T03:30:43;3.20;99.90
6110;DHT22;3085;49.444;11.054;2022-12-07T03:33:15;3.20;99.90
6110;DHT22;3085;49.444;11.054;2022-12-07T03:35:51;3.10;99.90
6110;DHT22;3085;49.444;11.054;2022-12-07T03:38:23;3.10;99.90
6110;DHT22;3085;49.444;11.054;2022-12-07T03:40:57;3.10;99.90
6110;DHT22;3085;49.444;11.054;2022-12-07T03:43:28;3.20;99.90
6110;DHT22;3085;49.444;11.054;2022-12-07T03:46:03;3.10;99.90
6110;DHT22;3085;49.444;11.054;2022-12-07T03:48:35;3.20;99.90
6110;DHT22;3085;49.444;11.054;2022-12-07T03:51:10;3.20;99.90
6110;DHT22;3085;49.444;11.054;2022-12-07T03:53:42;3.20;99.90
6110;DHT22;3085;49.444;11.054;2022-12-07T03:56:12;3.20;99.90
6110;DHT22;3085;49.444;11.054;2022-12-07T03:58:39;3.20;99.90
6110;DHT22;3085;49.444;11.054;2022-12-07T04:01:10;3.10;99.90
6110;DHT22;3085;49.444;11.054;2022-12-07T04:03:37;3.20;99.90
6110;DHT22;3085;49.444;11.054;2022-12-07T04:06:04;3.20;99.90
6110;DHT22;3085;49.444;11.054;2022-12-07T04:08:31;3.20;99.90
6110;DHT22;3085;49.444;11.054;2022-12-07T04:10:58;3.20;99.90
6110;DHT22;3085;49.444;11.054;2022-12-07T04:13:25;3.30;99.90
6110;DHT22;3085;49.444;11.054;2022-12-07T04:15:52;3.10;99.90
6110;DHT22;3085;49.444;11.054;2022-12-07T04:18:20;3.10;99.90
6110;DHT22;3085;49.444;11.054;2022-12-07T04:20:47;3.20;99.90
6110;DHT22;3085;49.444;11.054;2022-12-07T04:23:14;3.50;99.90
6110;DHT22;3085;49.444;11.054;2022-12-07T04:25:41;3.00;99.90
6110;DHT22;3085;49.444;11.054;2022-12-07T04:28:07;3.00;99.90
6110;DHT22;3085;49.444;11.054;2022-12-07T04:30:34;3.00;99.90
6110;DHT22;3085;49.444;11.054;2022-12-07T04:33:01;3.10;99.90
6110;DHT22;3085;49.444;11.054;2022-12-07T04:35:30;3.10;99.90
6110;DHT22;3085;49.444;11.054;2022-12-07T04:37:56;3.10;99.90
6110;DHT22;3085;49.444;11.054;2022-12-07T04:40:23;3.10;99.90
6110;DHT22;3085;49.444;11.054;2022-12-07T04:42:50;3.10;99.90
6110;DHT22;3085;49.444;11.054;2022-12-07T04:45:17;3.10;99.90
6110;DHT22;3085;49.444;11.054;2022-12-07T04:47:44;3.30;99.90
6110;DHT22;3085;49.444;11.054;2022-12-07T04:50:11;3.00;99.90
6110;DHT22;3085;49.444;11.054;2022-12-07T04:52:39;3.00;99.90
6110;DHT22;3085;49.444;11.054;2022-12-07T04:55:06;3.00;99.90
6110;DHT22;3085;49.444;11.054;2022-12-07T04:57:33;3.00;99.90
6110;DHT22;3085;49.444;11.054;2022-12-07T05:00:00;3.00;99.90
6110;DHT22;3085;49.444;11.054;2022-12-07T05:02:27;3.00;99.90
6110;DHT22;3085;49.444;11.054;2022-12-07T05:04:54;3.00;99.90
6110;DHT22;3085;49.444;11.054;2022-12-07T05:07:21;3.00;99.90
6110;DHT22;3085;49.444;11.054;2022-12-07T05:09:50;2.90;99.90
6110;DHT22;3085;49.444;11.054;2022-12-07T05:12:16;2.90;99.90
6110;DHT22;3085;49.444;11.054;2022-12-07T05:14:43;3.00;99.90
6110;DHT22;3085;49.444;11.054;2022-12-07T05:17:10;2.90;99.90
6110;DHT22;3085;49.444;11.054;2022-12-07T05:19:37;3.50;99.90
6110;DHT22;3085;49.444;11.054;2022-12-07T05:22:04;2.90;99.90
6110;DHT22;3085;49.444;11.054;2022-12-07T05:24:31;2.80;99.90
6110;DHT22;3085;49.444;11.054;2022-12-07T05:26:59;2.90;99.90
6110;DHT22;3085;49.444;11.054;2022-12-07T05:29:26;2.90;99.90
6110;DHT22;3085;49.444;11.054;2022-12-07T05:31:53;2.80;99.90
6110;DHT22;3085;49.444;11.054;2022-12-07T05:34:20;2.80;99.90
6110;DHT22;3085;49.444;11.054;2022-12-07T05:36:46;2.80;99.90
6110;DHT22;3085;49.444;11.054;2022-12-07T05:39:14;2.80;99.90
6110;DHT22;3085;49.444;11.054;2022-12-07T05:41:41;2.80;99.90
6110;DHT22;3085;49.444;11.054;2022-12-07T05:44:27;3.10;99.90
6110;DHT22;3085;49.444;11.054;2022-12-07T05:46:56;2.70;99.90
6110;DHT22;3085;49.444;11.054;2022-12-07T05:49:23;3.20;99.90
6110;DHT22;3085;49.444;11.054;2022-12-07T05:51:50;2.90;99.90
6110;DHT22;3085;49.444;11.054;2022-12-07T05:54:17;2.80;99.90
6110;DHT22;3085;49.444;11.054;2022-12-07T05:56:44;2.80;99.90
6110;DHT22;3085;49.444;11.054;2022-12-07T05:59:11;2.80;99.90
6110;DHT22;3085;49.444;11.054;2022-12-07T06:01:53;2.90;99.90
6110;DHT22;3085;49.444;11.054;2022-12-07T06:04:20;2.90;99.90
6110;DHT22;3085;49.444;11.054;2022-12-07T06:06:47;2.90;99.90
6110;DHT22;3085;49.444;11.054;2022-12-07T06:09:14;2.90;99.90
6110;DHT22;3085;49.444;11.054;2022-12-07T06:11:41;2.90;99.90
6110;DHT22;3085;49.444;11.054;2022-12-07T06:14:26;2.90;99.90
6110;DHT22;3085;49.444;11.054;2022-12-07T06:16:57;3.00;99.90
6110;DHT22;3085;49.444;11.054;2022-12-07T06:19:24;3.00;99.90
6110;DHT22;3085;49.444;11.054;2022-12-07T06:21:51;2.90;99.90
6110;DHT22;3085;49.444;11.054;2022-12-07T06:24:19;2.90;99.90
6110;DHT22;3085;49.444;11.054;2022-12-07T06:26:46;3.00;99.90
6110;DHT22;3085;49.444;11.054;2022-12-07T06:29:13;3.50;99.90
6110;DHT22;3085;49.444;11.054;2022-12-07T06:31:40;2.90;99.90
6110;DHT22;3085;49.444;11.054;2022-12-07T06:34:12;2.90;99.90
6110;DHT22;3085;49.444;11.054;2022-12-07T06:36:39;2.90;99.90
6110;DHT22;3085;49.444;11.054;2022-12-07T06:39:07;2.90;99.90
6110;DHT22;3085;49.444;11.054;2022-12-07T06:41:35;2.80;99.90
6110;DHT22;3085;49.444;11.054;2022-12-07T06:44:02;2.80;99.90
6110;DHT22;3085;49.444;11.054;2022-12-07T06:46:29;2.90;99.90
6110;DHT22;3085;49.444;11.054;2022-12-07T06:48:56;2.90;99.90
6110;DHT22;3085;49.444;11.054;2022-12-07T06:51:25;2.90;99.90
6110;DHT22;3085;49.444;11.054;2022-12-07T06:53:52;2.90;99.90
6110;DHT22;3085;49.444;11.054;2022-12-07T06:56:20;2.90;99.90
6110;DHT22;3085;49.444;11.054;2022-12-07T06:58:48;2.90;99.90
6110;DHT22;3085;49.444;11.054;2022-12-07T07:01:17;3.10;99.90
6110;DHT22;3085;49.444;11.054;2022-12-07T07:03:47;2.90;99.90
6110;DHT22;3085;49.444;11.054;2022-12-07T07:06:15;3.00;99.90
6110;DHT22;3085;49.444;11.054;2022-12-07T07:08:43;3.00;99.90
6110;DHT22;3085;49.444;11.054;2022-12-07T07:11:12;2.90;99.90
6110;DHT22;3085;49.444;11.054;2022-12-07T07:13:39;3.00;99.90
6110;DHT22;3085;49.444;11.054;2022-12-07T07:16:08;3.00;99.90
6110;DHT22;3085;49.444;11.054;2022-12-07T07:18:36;2.90;99.90
6110;DHT22;3085;49.444;11.054;2022-12-07T07:21:03;3.00;99.90
6110;DHT22;3085;49.444;11.054;2022-12-07T07:23:31;3.00;99.90
6110;DHT22;3085;49.444;11.054;2022-12-07T07:26:02;3.00;99.90
6110;DHT22;3085;49.444;11.054;2022-12-07T07:28:29;3.00;99.90
6110;DHT22;3085;49.444;11.054;2022-12-07T07:30:57;3.00;99.90
6110;DHT22;3085;49.444;11.054;2022-12-07T07:33:24;3.40;99.90
6110;DHT22;3085;49.444;11.054;2022-12-07T07:35:51;3.80;99.90
6110;DHT22;3085;49.444;11.054;2022-12-07T07:38:17;3.00;99.90
6110;DHT22;3085;49.444;11.054;2022-12-07T07:40:45;3.10;99.90
6110;DHT22;3085;49.444;11.054;2022-12-07T07:43:13;3.10;99.90
6110;DHT22;3085;49.444;11.054;2022-12-07T07:45:40;3.20;99.90
6110;DHT22;3085;49.444;11.054;2022-12-07T07:48:07;2.90;99.90
6110;DHT22;3085;49.444;11.054;2022-12-07T07:50:34;3.20;99.90
6110;DHT22;3085;49.444;11.054;2022-12-07T07:53:00;3.20;99.90
6110;DHT22;3085;49.444;11.054;2022-12-07T07:55:28;3.80;99.90
6110;DHT22;3085;49.444;11.054;2022-12-07T07:58:02;3.30;99.90
6110;DHT22;3085;49.444;11.054;2022-12-07T08:00:35;3.20;99.90
6110;DHT22;3085;49.444;11.054;2022-12-07T08:03:05;3.20;99.90
6110;DHT22;3085;49.444;11.054;2022-12-07T08:05:32;3.30;99.90
6110;DHT22;3085;49.444;11.054;2022-12-07T08:07:59;3.40;99.90
6110;DHT22;3085;49.444;11.054;2022-12-07T08:10:25;3.60;99.90
6110;DHT22;3085;49.444;11.054;2022-12-07T08:12:52;3.40;99.90
6110;DHT22;3085;49.444;11.054;2022-12-07T08:15:40;3.40;99.90
6110;DHT22;3085;49.444;11.054;2022-12-07T08:18:07;3.40;99.90
6110;DHT22;3085;49.444;11.054;2022-12-07T08:20:35;3.60;99.90
6110;DHT22;3085;49.444;11.054;2022-12-07T08:23:03;3.30;99.90
6110;DHT22;3085;49.444;11.054;2022-12-07T08:25:31;3.30;99.90
6110;DHT22;3085;49.444;11.054;2022-12-07T08:27:59;3.30;99.90
6110;DHT22;3085;49.444;11.054;2022-12-07T08:30:26;3.40;99.90
6110;DHT22;3085;49.444;11.054;2022-12-07T08:32:54;3.30;99.90
6110;DHT22;3085;49.444;11.054;2022-12-07T08:35:21;3.30;99.90
6110;DHT22;3085;49.444;11.054;2022-12-07T08:37:48;3.30;99.90
6110;DHT22;3085;49.444;11.054;2022-12-07T08:40:15;3.30;99.90
6110;DHT22;3085;49.444;11.054;2022-12-07T08:42:44;3.30;99.90
6110;DHT22;3085;49.444;11.054;2022-12-07T08:45:13;3.30;99.90
6110;DHT22;3085;49.444;11.054;2022-12-07T08:47:43;3.40;99.90
6110;DHT22;3085;49.444;11.054;2022-12-07T08:50:12;3.40;99.90
6110;DHT22;3085;49.444;11.054;2022-12-07T08:52:41;3.40;99.90
6110;DHT22;3085;49.444;11.054;2022-12-07T08:55:09;3.50;99.90
6110;DHT22;3085;49.444;11.054;2022-12-07T08:57:38;3.40;99.90
6110;DHT22;3085;49.444;11.054;2022-12-07T09:00:07;4.50;99.90
6110;DHT22;3085;49.444;11.054;2022-12-07T09:02:34;3.50;99.90
6110;DHT22;3085;49.444;11.054;2022-12-07T09:05:05;3.50;99.90
6110;DHT22;3085;49.444;11.054;2022-12-07T09:07:34;3.50;99.90
6110;DHT22;3085;49.444;11.054;2022-12-07T09:10:01;3.50;99.90
6110;DHT22;3085;49.444;11.054;2022-12-07T09:12:28;3.50;99.90
6110;DHT22;3085;49.444;11.054;2022-12-07T09:14:55;3.50;99.90
6110;DHT22;3085;49.444;11.054;2022-12-07T09:17:22;3.60;99.90
6110;DHT22;3085;49.444;11.054;2022-12-07T09:19:50;4.30;99.90
6110;DHT22;3085;49.444;11.054;2022-12-07T09:22:16;3.50;99.90
6110;DHT22;3085;49.444;11.054;2022-12-07T09:24:45;3.40;99.90
6110;DHT22;3085;49.444;11.054;2022-12-07T09:27:12;3.40;99.90
6110;DHT22;3085;49.444;11.054;2022-12-07T09:29:39;3.40;99.90
6110;DHT22;3085;49.444;11.054;2022-12-07T09:32:06;3.60;99.90
6110;DHT22;3085;49.444;11.054;2022-12-07T09:34:33;3.40;99.90
6110;DHT22;3085;49.444;11.054;2022-12-07T09:37:00;3.20;99.90
6110;DHT22;3085;49.444;11.054;2022-12-07T09:39:28;3.50;99.90
6110;DHT22;3085;49.444;11.054;2022-12-07T09:41:57;3.00;99.90
6110;DHT22;3085;49.444;11.054;2022-12-07T09:44:26;3.50;99.90
6110;DHT22;3085;49.444;11.054;2022-12-07T09:46:54;4.10;99.90
6110;DHT22;3085;49.444;11.054;2022-12-07T09:49:23;3.50;99.90
6110;DHT22;3085;49.444;11.054;2022-12-07T09:52:01;3.50;99.90
6110;DHT22;3085;49.444;11.054;2022-12-07T09:54:29;3.40;99.90
6110;DHT22;3085;49.444;11.054;2022-12-07T09:56:58;3.40;99.90
6110;DHT22;3085;49.444;11.054;2022-12-07T09:59:25;3.50;99.90
6110;DHT22;3085;49.444;11.054;2022-12-07T10:01:52;3.40;99.90
6110;DHT22;3085;49.444;11.054;2022-12-07T10:04:21;3.50;99.90
6110;DHT22;3085;49.444;11.054;2022-12-07T10:06:49;3.40;99.90
6110;DHT22;3085;49.444;11.054;2022-12-07T10:09:18;3.40;99.90
6110;DHT22;3085;49.444;11.054;2022-12-07T10:12:04;3.50;99.90
6110;DHT22;3085;49.444;11.054;2022-12-07T10:14:33;3.50;99.90
6110;DHT22;3085;49.444;11.054;2022-12-07T10:17:01;3.50;99.90
6110;DHT22;3085;49.444;11.054;2022-12-07T10:19:29;3.50;99.90
6110;DHT22;3085;49.444;11.054;2022-12-07T10:22:08;4.90;99.90
6110;DHT22;3085;49.444;11.054;2022-12-07T10:24:36;3.60;99.90
6110;DHT22;3085;49.444;11.054;2022-12-07T10:27:18;3.60;99.90
6110;DHT22;3085;49.444;11.054;2022-12-07T10:29:48;4.70;99.90
6110;DHT22;3085;49.444;11.054;2022-12-07T10:32:32;3.70;99.90
6110;DHT22;3085;49.444;11.054;2022-12-07T10:35:22;2.90;99.90
6110;DHT22;3085;49.444;11.054;2022-12-07T10:37:50;3.70;99.90
6110;DHT22;3085;49.444;11.054;2022-12-07T10:40:27;3.80;99.90
6110;DHT22;3085;49.444;11.054;2022-12-07T10:43:04;3.80;99.90
6110;DHT22;3085;49.444;11.054;2022-12-07T10:45:32;3.80;99.90
6110;DHT22;3085;49.444;11.054;2022-12-07T10:48:05;3.80;99.90
6110;DHT22;3085;49.444;11.054;2022-12-07T10:50:56;3.90;99.90
6110;DHT22;3085;49.444;11.054;2022-12-07T10:53:43;3.90;99.90
6110;DHT22;3085;49.444;11.054;2022-12-07T10:56:47;3.90;99.90
6110;DHT22;3085;49.444;11.054;2022-12-07T10:59:34;3.90;99.90
6110;DHT22;3085;49.444;11.054;2022-12-07T11:02:19;3.90;99.90
6110;DHT22;3085;49.444;11.054;2022-12-07T11:04:59;3.90;99.90
6110;DHT22;3085;49.444;11.054;2022-12-07T11:07:39;4.00;99.90
6110;DHT22;3085;49.444;11.054;2022-12-07T11:10:13;4.70;99.90
6110;DHT22;3085;49.444;11.054;2022-12-07T11:12:56;3.90;99.90
6110;DHT22;3085;49.444;11.054;2022-12-07T11:15:33;3.90;99.90
6110;DHT22;3085;49.444;11.054;2022-12-07T11:18:07;3.90;99.90
6110;DHT22;3085;49.444;11.054;2022-12-07T11:20:43;4.00;99.90
6110;DHT22;3085;49.444;11.054;2022-12-07T11:23:25;4.00;99.90
6110;DHT22;3085;49.444;11.054;2022-12-07T11:26:08;3.90;99.90
6110;DHT22;3085;49.444;11.054;2022-12-07T11:31:38;4.00;99.90
6110;DHT22;3085;49.444;11.054;2022-12-07T11:34:18;4.10;99.90
6110;DHT22;3085;49.444;11.054;2022-12-07T11:36:48;4.70;99.90
6110;DHT22;3085;49.444;11.054;2022-12-07T11:39:22;4.10;99.90
6110;DHT22;3085;49.444;11.054;2022-12-07T11:41:54;4.90;99.90
6110;DHT22;3085;49.444;11.054;2022-12-07T11:44:30;4.10;99.90
6110;DHT22;3085;49.444;11.054;2022-12-07T11:47:02;4.10;99.90
6110;DHT22;3085;49.444;11.054;2022-12-07T11:49:40;4.10;99.90
6110;DHT22;3085;49.444;11.054;2022-12-07T11:52:20;4.40;99.90
6110;DHT22;3085;49.444;11.054;2022-12-07T11:54:55;4.10;99.90
6110;DHT22;3085;49.444;11.054;2022-12-07T11:57:40;4.20;99.90
6110;DHT22;3085;49.444;11.054;2022-12-07T12:00:14;4.20;99.90
6110;DHT22;3085;49.444;11.054;2022-12-07T12:02:49;4.20;99.90
6110;DHT22;3085;49.444;11.054;2022-12-07T12:05:22;4.20;99.90
6110;DHT22;3085;49.444;11.054;2022-12-07T12:07:55;4.20;99.90
6110;DHT22;3085;49.444;11.054;2022-12-07T12:10:30;4.30;99.90
6110;DHT22;3085;49.444;11.054;2022-12-07T12:13:23;4.30;99.90
6110;DHT22;3085;49.444;11.054;2022-12-07T12:16:17;4.20;99.90
6110;DHT22;3085;49.444;11.054;2022-12-07T12:18:57;4.20;99.90
6110;DHT22;3085;49.444;11.054;2022-12-07T12:21:31;4.30;99.90
6110;DHT22;3085;49.444;11.054;2022-12-07T12:24:13;5.30;99.90
6110;DHT22;3085;49.444;11.054;2022-12-07T12:26:50;4.20;99.90
6110;DHT22;3085;49.444;11.054;2022-12-07T12:29:23;4.50;99.90
6110;DHT22;3085;49.444;11.054;2022-12-07T12:32:12;4.30;99.90
6110;DHT22;3085;49.444;11.054;2022-12-07T12:34:58;4.30;99.90
6110;DHT22;3085;49.444;11.054;2022-12-07T12:37:46;4.30;99.90
6110;DHT22;3085;49.444;11.054;2022-12-07T12:40:39;4.30;99.90
6110;DHT22;3085;49.444;11.054;2022-12-07T12:43:44;4.20;99.90
6110;DHT22;3085;49.444;11.054;2022-12-07T12:46:54;4.20;99.90
6110;DHT22;3085;49.444;11.054;2022-12-07T12:49:35;4.30;99.90
6110;DHT22;3085;49.444;11.054;2022-12-07T12:58:37;5.00;99.90
6110;DHT22;3085;49.444;11.054;2022-12-07T13:04:22;4.20;99.90
6110;DHT22;3085;49.444;11.054;2022-12-07T13:06:55;4.50;99.90
6110;DHT22;3085;49.444;11.054;2022-12-07T13:09:34;4.00;99.90
6110;DHT22;3085;49.444;11.054;2022-12-07T13:12:12;4.10;99.90
6110;DHT22;3085;49.444;11.054;2022-12-07T13:18:04;4.60;99.90
6110;DHT22;3085;49.444;11.054;2022-12-07T13:20:48;3.40;99.90
6110;DHT22;3085;49.444;11.054;2022-12-07T13:23:21;4.10;99.90
6110;DHT22;3085;49.444;11.054;2022-12-07T13:28:42;4.10;99.90
6110;DHT22;3085;49.444;11.054;2022-12-07T13:31:22;4.10;99.90
6110;DHT22;3085;49.444;11.054;2022-12-07T13:33:50;4.10;99.90
6110;DHT22;3085;49.444;11.054;2022-12-07T13:36:22;4.10;99.90
6110;DHT22;3085;49.444;11.054;2022-12-07T13:38:55;4.30;99.90
6110;DHT22;3085;49.444;11.054;2022-12-07T13:41:29;4.40;99.90
6110;DHT22;3085;49.444;11.054;2022-12-07T13:44:03;5.20;99.90
6110;DHT22;3085;49.444;11.054;2022-12-07T13:46:40;4.20;99.90
6110;DHT22;3085;49.444;11.054;2022-12-07T13:49:18;4.30;99.90
6110;DHT22;3085;49.444;11.054;2022-12-07T13:51:45;4.30;99.90
6110;DHT22;3085;49.444;11.054;2022-12-07T13:54:13;4.20;99.90
6110;DHT22;3085;49.444;11.054;2022-12-07T13:56:41;5.00;99.90
6110;DHT22;3085;49.444;11.054;2022-12-07T13:59:18;3.60;99.90
6110;DHT22;3085;49.444;11.054;2022-12-07T14:01:49;5.20;99.90
6110;DHT22;3085;49.444;11.054;2022-12-07T14:04:18;4.50;99.90
6110;DHT22;3085;49.444;11.054;2022-12-07T14:06:55;4.60;99.90
6110;DHT22;3085;49.444;11.054;2022-12-07T14:09:23;4.40;99.90
6110;DHT22;3085;49.444;11.054;2022-12-07T14:11:53;4.40;99.90
6110;DHT22;3085;49.444;11.054;2022-12-07T14:14:24;4.40;99.90
6110;DHT22;3085;49.444;11.054;2022-12-07T14:17:11;4.30;99.90
6110;DHT22;3085;49.444;11.054;2022-12-07T14:19:52;4.30;99.90
6110;DHT22;3085;49.444;11.054;2022-12-07T14:22:28;4.30;99.90
6110;DHT22;3085;49.444;11.054;2022-12-07T14:25:00;4.30;99.90
6110;DHT22;3085;49.444;11.054;2022-12-07T14:27:32;4.30;99.90
6110;DHT22;3085;49.444;11.054;2022-12-07T14:30:02;4.70;99.90
6110;DHT22;3085;49.444;11.054;2022-12-07T14:32:30;4.30;99.90
6110;DHT22;3085;49.444;11.054;2022-12-07T14:35:08;4.30;99.90
6110;DHT22;3085;49.444;11.054;2022-12-07T14:37:37;4.30;99.90
6110;DHT22;3085;49.444;11.054;2022-12-07T14:40:06;4.30;99.90
6110;DHT22;3085;49.444;11.054;2022-12-07T14:42:34;4.30;99.90
6110;DHT22;3085;49.444;11.054;2022-12-07T14:45:03;4.40;99.90
6110;DHT22;3085;49.444;11.054;2022-12-07T14:47:33;4.30;99.90
6110;DHT22;3085;49.444;11.054;2022-12-07T14:50:00;4.30;99.90
6110;DHT22;3085;49.444;11.054;2022-12-07T14:52:28;4.20;99.90
6110;DHT22;3085;49.444;11.054;2022-12-07T14:54:56;4.20;99.90
6110;DHT22;3085;49.444;11.054;2022-12-07T14:57:23;4.30;99.90
6110;DHT22;3085;49.444;11.054;2022-12-07T14:59:50;4.30;99.90
6110;DHT22;3085;49.444;11.054;2022-12-07T15:02:18;4.30;99.90
6110;DHT22;3085;49.444;11.054;2022-12-07T15:04:46;3.90;99.90
6110;DHT22;3085;49.444;11.054;2022-12-07T15:07:19;3.70;99.90
6110;DHT22;3085;49.444;11.054;2022-12-07T15:09:46;4.10;99.90
6110;DHT22;3085;49.444;11.054;2022-12-07T15:12:13;4.70;99.90
6110;DHT22;3085;49.444;11.054;2022-12-07T15:14:40;4.40;99.90
6110;DHT22;3085;49.444;11.054;2022-12-07T15:17:10;3.90;99.90
6110;DHT22;3085;49.444;11.054;2022-12-07T15:19:39;3.90;99.90
6110;DHT22;3085;49.444;11.054;2022-12-07T15:22:07;3.90;99.90
6110;DHT22;3085;49.444;11.054;2022-12-07T15:24:36;3.90;99.90
6110;DHT22;3085;49.444;11.054;2022-12-07T15:27:03;3.80;99.90
6110;DHT22;3085;49.444;11.054;2022-12-07T15:29:30;3.80;99.90
6110;DHT22;3085;49.444;11.054;2022-12-07T15:31:57;4.00;99.90
6110;DHT22;3085;49.444;11.054;2022-12-07T15:34:25;4.00;99.90
6110;DHT22;3085;49.444;11.054;2022-12-07T15:36:55;4.00;99.90
6110;DHT22;3085;49.444;11.054;2022-12-07T15:39:22;4.10;99.90
6110;DHT22;3085;49.444;11.054;2022-12-07T15:41:49;4.10;99.90
6110;DHT22;3085;49.444;11.054;2022-12-07T15:44:16;4.10;99.90
6110;DHT22;3085;49.444;11.054;2022-12-07T15:47:00;4.00;99.90
6110;DHT22;3085;49.444;11.054;2022-12-07T15:49:27;4.00;99.90
6110;DHT22;3085;49.444;11.054;2022-12-07T15:51:56;4.10;99.90
6110;DHT22;3085;49.444;11.054;2022-12-07T15:54:25;4.10;99.90
6110;DHT22;3085;49.444;11.054;2022-12-07T15:56:53;4.10;99.90
6110;DHT22;3085;49.444;11.054;2022-12-07T15:59:20;4.10;99.90
6110;DHT22;3085;49.444;11.054;2022-12-07T16:01:47;4.10;99.90
6110;DHT22;3085;49.444;11.054;2022-12-07T16:04:14;4.10;99.90
6110;DHT22;3085;49.444;11.054;2022-12-07T16:06:40;4.10;99.90
6110;DHT22;3085;49.444;11.054;2022-12-07T16:09:09;4.10;99.90
6110;DHT22;3085;49.444;11.054;2022-12-07T16:11:36;4.10;99.90
6110;DHT22;3085;49.444;11.054;2022-12-07T16:14:02;4.10;99.90
6110;DHT22;3085;49.444;11.054;2022-12-07T16:16:30;4.10;99.90
6110;DHT22;3085;49.444;11.054;2022-12-07T16:18:57;4.00;99.90
6110;DHT22;3085;49.444;11.054;2022-12-07T16:21:25;4.00;99.90
6110;DHT22;3085;49.444;11.054;2022-12-07T16:23:51;4.00;99.90
6110;DHT22;3085;49.444;11.054;2022-12-07T16:26:22;4.00;99.90
6110;DHT22;3085;49.444;11.054;2022-12-07T16:28:49;4.00;99.90
6110;DHT22;3085;49.444;11.054;2022-12-07T16:31:19;4.00;99.90
6110;DHT22;3085;49.444;11.054;2022-12-07T16:33:46;4.00;99.90
6110;DHT22;3085;49.444;11.054;2022-12-07T16:36:15;4.00;99.90
6110;DHT22;3085;49.444;11.054;2022-12-07T16:38:43;3.90;99.90
6110;DHT22;3085;49.444;11.054;2022-12-07T16:41:10;3.90;99.90
6110;DHT22;3085;49.444;11.054;2022-12-07T16:43:39;3.80;99.90
6110;DHT22;3085;49.444;11.054;2022-12-07T16:46:06;3.80;99.90
6110;DHT22;3085;49.444;11.054;2022-12-07T16:48:35;3.90;99.90
6110;DHT22;3085;49.444;11.054;2022-12-07T16:51:04;4.10;99.90